Time;durP1;ratioP1;P1;durP2;ratioP2;P2;SDS_P1;SDS_P2;PMS_P1;PMS_P2;Temp;Humidity;BMP_temperature;BMP_pressure;BME280_temperature;BME280_humidity;BME280_pressure;Samples;Min_cycle;Max_cycle;Signal;HPM_P1;HPM_P2
2024/03/05 06:17:55;;;;;;;;;12.00;12.00;;;;;;;;5086488;22;11676;-71
2024/03/05 06:20:21;;;;;;;;;14.00;12.00;;;;;;;;5019821;28;11514;-71
2024/03/05 06:22:46;;;;;;;;;13.50;12.25;;;;;;;;5009582;28;11573;-72
2024/03/05 06:25:13;;;;;;;;;14.50;10.00;;;;;;;;5010799;28;9496;-71
2024/03/05 06:27:41;;;;;;;;;10.50;10.00;;;;;;;;5010849;28;8779;-71
2024/03/05 06:30:15;;;;;;;;;9.25;8.50;;;;;;;;5010766;28;11521;-68
2024/03/05 06:32:43;;;;;;;;;12.00;12.00;;;;;;;;5010621;28;11641;-69
2024/03/05 06:35:10;;;;;;;;;12.75;10.50;;;;;;;;5010403;28;11488;-70
2024/03/05 06:37:37;;;;;;;;;14.00;10.00;;;;;;;;5009280;28;11524;-70
2024/03/05 06:40:09;;;;;;;;;12.50;9.00;;;;;;;;5010504;28;12230;-73
2024/03/05 06:42:34;;;;;;;;;8.00;8.00;;;;;;;;5010396;28;12276;-73
2024/03/05 06:45:05;;;;;;;;;11.00;10.50;;;;;;;;5009024;28;11521;-78
2024/03/05 06:47:38;;;;;;;;;9.50;9.50;;;;;;;;5012719;28;8880;-73
2024/03/05 06:50:07;;;;;;;;;11.50;10.00;;;;;;;;5029995;28;11554;-73
2024/03/05 06:58:17;;;;;;;;;15.00;13.50;;;;;;;;5004232;28;11576;-69
2024/03/05 07:00:44;;;;;;;;;21.50;17.50;;;;;;;;5009043;28;11607;-72
2024/03/05 07:03:10;;;;;;;;;17.50;13.00;;;;;;;;5008959;28;8826;-71
2024/03/05 07:05:35;;;;;;;;;12.00;11.00;;;;;;;;5008772;28;11542;-71
2024/03/05 07:08:00;;;;;;;;;13.25;11.00;;;;;;;;5008826;28;8822;-71
2024/03/05 07:10:27;;;;;;;;;10.00;10.00;;;;;;;;5008956;28;8810;-71
2024/03/05 07:12:52;;;;;;;;;12.75;12.75;;;;;;;;5010395;28;8899;-71
2024/03/05 07:15:18;;;;;;;;;10.50;10.50;;;;;;;;5008303;28;11580;-71
2024/03/05 07:17:43;;;;;;;;;10.75;10.75;;;;;;;;5028260;28;8872;-71
2024/03/05 07:20:18;;;;;;;;;15.00;13.25;;;;;;;;5019964;28;8794;-70
2024/03/05 07:22:47;;;;;;;;;13.25;9.75;;;;;;;;5027997;28;8796;-70
2024/03/05 07:25:14;;;;;;;;;12.25;10.75;;;;;;;;5027992;28;11555;-70
2024/03/05 07:27:40;;;;;;;;;16.25;11.50;;;;;;;;5040024;28;11877;-71
2024/03/05 07:30:08;;;;;;;;;13.75;13.75;;;;;;;;5037655;28;11569;-71
2024/03/05 07:32:35;;;;;;;;;17.75;13.75;;;;;;;;5038813;28;8809;-71
2024/03/05 07:35:01;;;;;;;;;11.75;10.75;;;;;;;;5040015;28;11534;-71
2024/03/05 07:37:27;;;;;;;;;12.75;10.75;;;;;;;;5039164;28;8812;-71
2024/03/05 07:39:52;;;;;;;;;11.50;10.75;;;;;;;;5049871;28;12298;-71
2024/03/05 07:42:17;;;;;;;;;16.50;11.50;;;;;;;;5053056;28;8934;-72
2024/03/05 07:44:42;;;;;;;;;11.50;10.50;;;;;;;;5052930;28;8812;-72
2024/03/05 07:47:08;;;;;;;;;12.25;10.00;;;;;;;;5052488;28;8805;-72
2024/03/05 07:49:33;;;;;;;;;11.50;11.00;;;;;;;;5043674;28;8823;-73
2024/03/05 07:51:58;;;;;;;;;20.00;15.00;;;;;;;;5033012;28;8791;-73
2024/03/05 07:54:23;;;;;;;;;15.75;13.75;;;;;;;;5031989;28;8828;-73
2024/03/05 07:56:49;;;;;;;;;13.75;11.25;;;;;;;;5031448;28;8833;-73
2024/03/05 07:59:14;;;;;;;;;18.50;12.50;;;;;;;;5032665;28;8824;-73
2024/03/05 08:01:40;;;;;;;;;17.50;16.25;;;;;;;;5032330;28;8824;-75
2024/03/05 08:04:07;;;;;;;;;16.00;13.00;;;;;;;;5032738;28;8886;-74
2024/03/05 08:06:32;;;;;;;;;12.50;11.50;;;;;;;;5032579;28;11525;-71
2024/03/05 08:08:58;;;;;;;;;10.25;10.25;;;;;;;;5032622;28;12169;-70
2024/03/05 08:11:23;;;;;;;;;10.25;10.25;;;;;;;;5032531;28;8826;-71
2024/03/05 08:13:48;;;;;;;;;10.25;10.25;;;;;;;;5032578;28;9514;-74
2024/03/05 08:16:13;;;;;;;;;11.50;11.50;;;;;;;;5032037;28;8784;-73
2024/03/05 08:18:39;;;;;;;;;14.50;13.25;;;;;;;;5031315;28;8858;-75
2024/03/05 08:21:04;;;;;;;;;8.50;8.50;;;;;;;;5024570;28;8811;-74
2024/03/05 08:23:30;;;;;;;;;12.50;11.50;;;;;;;;5027017;28;8878;-75
2024/03/05 08:25:55;;;;;;;;;11.50;11.00;;;;;;;;5032329;28;8799;-74
2024/03/05 08:28:20;;;;;;;;;12.75;10.75;;;;;;;;5032384;28;8881;-73
2024/03/05 08:30:46;;;;;;;;;10.50;10.50;;;;;;;;5032016;28;8792;-73
2024/03/05 08:33:12;;;;;;;;;8.25;8.25;;;;;;;;5032331;28;9556;-74
2024/03/05 08:35:37;;;;;;;;;12.00;8.75;;;;;;;;5032442;28;8816;-75
2024/03/05 08:38:03;;;;;;;;;9.00;8.25;;;;;;;;5032112;28;10668;-74
2024/03/05 08:40:32;;;;;;;;;14.00;11.25;;;;;;;;5032228;28;8815;-74
2024/03/05 08:42:58;;;;;;;;;11.00;10.00;;;;;;;;5031138;28;8812;-74
2024/03/05 08:45:23;;;;;;;;;10.00;10.00;;;;;;;;5031786;28;11077;-74
2024/03/05 08:47:52;;;;;;;;;10.00;10.00;;;;;;;;5032358;28;8769;-74
2024/03/05 08:50:18;;;;;;;;;10.75;9.00;;;;;;;;5032096;28;8808;-74
2024/03/05 08:52:43;;;;;;;;;9.50;9.00;;;;;;;;5032287;28;10336;-74
2024/03/05 08:55:10;;;;;;;;;9.25;9.25;;;;;;;;5030623;28;8918;-77
2024/03/05 08:57:37;;;;;;;;;11.00;9.00;;;;;;;;5031709;28;8796;-74
2024/03/05 09:00:02;;;;;;;;;9.00;8.50;;;;;;;;5029857;28;10507;-77
2024/03/05 09:02:28;;;;;;;;;7.75;7.75;;;;;;;;5031952;28;10354;-73
2024/03/05 09:04:53;;;;;;;;;7.50;7.50;;;;;;;;5042026;28;8855;-71
2024/03/05 09:07:18;;;;;;;;;9.00;7.75;;;;;;;;5051479;28;8777;-72
2024/03/05 09:09:44;;;;;;;;;10.50;9.00;;;;;;;;5051804;28;9638;-72
2024/03/05 09:12:12;;;;;;;;;8.25;8.00;;;;;;;;5051790;28;8904;-72
2024/03/05 09:14:37;;;;;;;;;7.75;7.50;;;;;;;;5051259;28;8821;-72
2024/03/05 09:17:03;;;;;;;;;7.50;6.50;;;;;;;;5051292;28;9888;-69
2024/03/05 09:19:28;;;;;;;;;6.75;6.75;;;;;;;;5051468;28;8821;-68
2024/03/05 09:21:53;;;;;;;;;6.00;6.00;;;;;;;;5033121;28;8919;-68
2024/03/05 09:24:18;;;;;;;;;8.00;6.00;;;;;;;;5031399;28;8893;-69
2024/03/05 09:26:44;;;;;;;;;5.33;5.00;;;;;;;;5029993;28;8820;-69
2024/03/05 09:29:09;;;;;;;;;5.00;5.00;;;;;;;;5031120;28;9506;-71
2024/03/05 09:31:35;;;;;;;;;8.00;7.00;;;;;;;;5028047;28;8811;-72
2024/03/05 09:34:01;;;;;;;;;5.50;5.00;;;;;;;;5021258;28;8798;-73
2024/03/05 09:36:26;;;;;;;;;3.00;3.00;;;;;;;;5021443;28;8830;-73
2024/03/05 09:38:52;;;;;;;;;6.00;5.00;;;;;;;;5018688;28;8850;-73
2024/03/05 09:41:17;;;;;;;;;5.00;5.00;;;;;;;;5010141;28;8826;-74
2024/03/05 09:43:45;;;;;;;;;4.00;4.00;;;;;;;;5009707;28;8809;-72
2024/03/05 09:46:12;;;;;;;;;5.00;2.50;;;;;;;;5009827;28;8810;-72
2024/03/05 09:48:40;;;;;;;;;5.00;5.00;;;;;;;;5011272;28;8822;-73
2024/03/05 09:51:09;;;;;;;;;5.75;4.75;;;;;;;;5011231;28;8946;-72
2024/03/05 09:53:35;;;;;;;;;2.50;2.25;;;;;;;;5009852;28;8826;-73
2024/03/05 09:56:00;;;;;;;;;4.00;4.00;;;;;;;;5009670;28;8950;-73
2024/03/05 09:58:29;;;;;;;;;6.33;4.33;;;;;;;;5010359;28;8826;-73
2024/03/05 10:00:54;;;;;;;;;5.50;4.00;;;;;;;;5011002;28;8806;-73
2024/03/05 10:03:20;;;;;;;;;8.00;6.00;;;;;;;;5009543;28;9615;-72
2024/03/05 10:05:45;;;;;;;;;9.00;8.00;;;;;;;;5010996;28;8901;-72
2024/03/05 10:08:14;;;;;;;;;8.00;7.33;;;;;;;;5029393;28;8836;-72
2024/03/05 10:10:39;;;;;;;;;7.00;4.75;;;;;;;;5029286;28;8816;-72
2024/03/05 10:13:05;;;;;;;;;6.33;4.67;;;;;;;;5030565;28;8791;-70
2024/03/05 10:15:30;;;;;;;;;6.00;5.00;;;;;;;;5030210;28;8858;-72
2024/03/05 10:17:56;;;;;;;;;6.00;5.00;;;;;;;;5028993;28;8828;-73
2024/03/05 10:20:26;;;;;;;;;5.25;5.25;;;;;;;;5030565;28;8902;-71
2024/03/05 10:22:52;;;;;;;;;7.25;7.25;;;;;;;;5030466;28;8788;-73
2024/03/05 10:25:17;;;;;;;;;6.00;5.75;;;;;;;;5030464;28;8943;-70
2024/03/05 10:27:46;;;;;;;;;7.00;6.00;;;;;;;;5030503;28;8881;-70
2024/03/05 10:30:35;;;;;;;;;6.00;6.00;;;;;;;;5030041;28;8784;-69
2024/03/05 10:33:02;;;;;;;;;6.40;6.00;;;;;;;;5030185;28;8795;-69
2024/03/05 10:35:29;;;;;;;;;6.00;4.80;;;;;;;;5029691;28;9585;-68
2024/03/05 10:38:03;;;;;;;;;5.40;5.20;;;;;;;;5025558;28;8800;-70
2024/03/05 10:40:37;;;;;;;;;7.80;7.80;;;;;;;;5021462;28;8792;-68
2024/03/05 10:43:06;;;;;;;;;6.20;5.60;;;;;;;;5028269;28;8848;-68
2024/03/05 10:45:33;;;;;;;;;9.80;9.80;;;;;;;;5027431;28;8796;-68
2024/03/05 10:47:59;;;;;;;;;7.00;7.00;;;;;;;;5028318;28;8827;-68
2024/03/05 10:50:28;;;;;;;;;14.50;12.00;;;;;;;;5027980;28;8826;-68
2024/03/05 10:52:56;;;;;;;;;10.00;9.00;;;;;;;;5028093;28;8807;-68
2024/03/05 10:55:22;;;;;;;;;27.25;25.75;;;;;;;;5027990;28;8834;-68
2024/03/05 11:00:35;;;;;;;;;9.00;9.00;;;;;;;;5027931;28;8839;-68
2024/03/05 11:03:03;;;;;;;;;6.00;6.00;;;;;;;;5027985;28;8827;-68
2024/03/05 11:05:31;;;;;;;;;7.25;7.25;;;;;;;;5029552;28;8796;-68
2024/03/05 11:07:57;;;;;;;;;6.75;6.75;;;;;;;;5030002;28;8828;-68
2024/03/05 11:10:24;;;;;;;;;9.00;8.00;;;;;;;;5030496;28;8804;-68
2024/03/05 11:12:50;;;;;;;;;10.25;8.00;;;;;;;;5033839;28;8834;-68
2024/03/05 11:15:15;;;;;;;;;8.33;7.33;;;;;;;;5033693;28;9498;-68
2024/03/05 11:17:41;;;;;;;;;7.67;7.67;;;;;;;;5032648;28;11505;-68
2024/03/05 11:20:30;;;;;;;;;9.00;8.67;;;;;;;;5033637;28;8823;-68
2024/03/05 11:22:56;;;;;;;;;8.00;7.00;;;;;;;;5033717;28;9081;-68
2024/03/05 11:25:32;;;;;;;;;8.00;7.00;;;;;;;;5033556;28;8872;-68
2024/03/05 11:28:00;;;;;;;;;8.67;7.67;;;;;;;;5033449;28;9226;-68
2024/03/05 11:30:31;;;;;;;;;7.00;7.00;;;;;;;;5032218;28;9201;-68
2024/03/05 11:33:08;;;;;;;;;6.33;6.00;;;;;;;;5033375;28;9210;-68
2024/03/05 11:35:36;;;;;;;;;3.67;3.67;;;;;;;;5033146;28;9229;-68
2024/03/05 11:38:01;;;;;;;;;6.33;5.00;;;;;;;;5031173;28;10326;-68
2024/03/05 11:40:34;;;;;;;;;4.00;4.00;;;;;;;;5021051;28;9220;-68
2024/03/05 11:42:59;;;;;;;;;4.33;4.33;;;;;;;;5033383;28;8800;-68
2024/03/05 11:45:45;;;;;;;;;4.67;4.00;;;;;;;;5033409;28;9344;-68
2024/03/05 11:48:13;;;;;;;;;5.75;4.75;;;;;;;;5033382;28;8791;-67
2024/03/05 11:50:39;;;;;;;;;5.50;5.50;;;;;;;;5033246;28;9426;-68
2024/03/05 11:53:06;;;;;;;;;6.25;6.25;;;;;;;;5033229;28;9448;-68
2024/03/05 11:55:32;;;;;;;;;18.25;18.25;;;;;;;;5033098;28;8796;-68
2024/03/05 11:57:57;;;;;;;;;8.00;8.00;;;;;;;;5031732;28;10143;-68
2024/03/05 12:00:23;;;;;;;;;9.25;6.25;;;;;;;;5032954;28;8780;-68
2024/03/05 12:02:57;;;;;;;;;10.25;9.25;;;;;;;;5032984;28;8800;-68
2024/03/05 12:05:23;;;;;;;;;10.75;8.50;;;;;;;;5032687;28;8838;-68
2024/03/05 12:08:16;;;;;;;;;6.00;6.00;;;;;;;;5032880;28;9973;-68
2024/03/05 12:10:42;;;;;;;;;6.75;5.00;;;;;;;;5031275;28;11678;-68
2024/03/05 12:13:08;;;;;;;;;5.00;4.75;;;;;;;;5031683;28;9948;-68
2024/03/05 12:15:34;;;;;;;;;4.00;4.00;;;;;;;;5032679;28;8804;-69
2024/03/05 12:18:05;;;;;;;;;5.00;5.00;;;;;;;;5031608;28;8954;-68
2024/03/05 12:20:30;;;;;;;;;5.25;5.00;;;;;;;;5032626;28;9740;-68
2024/03/05 12:22:56;;;;;;;;;4.00;3.00;;;;;;;;5032183;28;10448;-68
2024/03/05 12:25:25;;;;;;;;;3.75;3.75;;;;;;;;5032653;28;8788;-68
2024/03/05 12:27:54;;;;;;;;;8.75;6.25;;;;;;;;5032779;28;8799;-68
2024/03/05 12:30:19;;;;;;;;;6.25;5.00;;;;;;;;5032245;28;9879;-68
2024/03/05 12:32:51;;;;;;;;;5.00;4.25;;;;;;;;5032714;28;10137;-68
2024/03/05 12:35:20;;;;;;;;;5.50;5.00;;;;;;;;5029664;28;8824;-69
2024/03/05 12:37:45;;;;;;;;;5.00;5.00;;;;;;;;5032486;28;10063;-71
2024/03/05 12:40:14;;;;;;;;;6.75;5.25;;;;;;;;5032257;28;10020;-71
2024/03/05 12:42:39;;;;;;;;;5.00;5.00;;;;;;;;5031136;28;9643;-72
2024/03/05 12:45:07;;;;;;;;;5.25;5.00;;;;;;;;5032211;28;10201;-71
2024/03/05 12:47:33;;;;;;;;;3.50;3.25;;;;;;;;5032315;28;8918;-71
2024/03/05 12:50:02;;;;;;;;;6.00;4.50;;;;;;;;5030755;28;10338;-72
2024/03/05 12:52:27;;;;;;;;;5.00;5.00;;;;;;;;5032215;28;8816;-73
2024/03/05 12:54:56;;;;;;;;;4.50;4.50;;;;;;;;5032017;28;11269;-71
2024/03/05 12:57:31;;;;;;;;;5.25;4.00;;;;;;;;5031803;28;8922;-72
2024/03/05 12:59:58;;;;;;;;;6.50;4.00;;;;;;;;5031923;28;10444;-72
2024/03/05 13:02:23;;;;;;;;;6.50;5.00;;;;;;;;5032164;28;10632;-71
2024/03/05 13:04:48;;;;;;;;;4.50;4.50;;;;;;;;5031849;28;10578;-71
2024/03/05 13:07:14;;;;;;;;;3.50;3.50;;;;;;;;5031983;28;8788;-71
2024/03/05 13:09:39;;;;;;;;;6.25;5.00;;;;;;;;5031834;28;9637;-71
2024/03/05 13:12:05;;;;;;;;;4.00;3.50;;;;;;;;5031595;28;8865;-71
2024/03/05 13:14:30;;;;;;;;;6.00;6.00;;;;;;;;5030532;28;8812;-72
2024/03/05 13:16:55;;;;;;;;;5.00;4.00;;;;;;;;5031571;28;8784;-72
2024/03/05 13:19:22;;;;;;;;;6.75;5.00;;;;;;;;5031413;28;8816;-72
2024/03/05 13:21:47;;;;;;;;;4.50;4.50;;;;;;;;5030358;28;8808;-72
2024/03/05 13:24:13;;;;;;;;;4.00;4.00;;;;;;;;5031669;28;10692;-71
2024/03/05 13:26:39;;;;;;;;;5.50;4.50;;;;;;;;5031298;28;8806;-71
2024/03/05 13:29:05;;;;;;;;;2.00;1.00;;;;;;;;5030187;28;8800;-72
2024/03/05 13:31:30;;;;;;;;;5.50;5.50;;;;;;;;5029982;28;10773;-71
2024/03/05 13:33:55;;;;;;;;;5.00;4.50;;;;;;;;5030343;28;8796;-73
2024/03/05 13:36:23;;;;;;;;;3.75;3.75;;;;;;;;5031473;28;8796;-73
2024/03/05 13:38:49;;;;;;;;;4.00;4.00;;;;;;;;5031312;28;8921;-73
2024/03/05 13:41:14;;;;;;;;;4.50;4.00;;;;;;;;5030848;28;10654;-73
2024/03/05 13:43:39;;;;;;;;;5.75;4.50;;;;;;;;5031238;28;8785;-73
2024/03/05 13:46:05;;;;;;;;;6.00;5.00;;;;;;;;5031061;28;8906;-72
2024/03/05 13:48:30;;;;;;;;;5.25;5.25;;;;;;;;5031056;28;9572;-73
2024/03/05 13:50:56;;;;;;;;;6.00;6.00;;;;;;;;5031204;28;8912;-73
2024/03/05 13:53:21;;;;;;;;;6.25;5.25;;;;;;;;5029725;28;8808;-73
2024/03/05 13:55:47;;;;;;;;;7.00;6.00;;;;;;;;5030853;28;8920;-73
2024/03/05 13:58:14;;;;;;;;;3.25;3.25;;;;;;;;5030976;28;8954;-73
2024/03/05 14:00:40;;;;;;;;;6.50;6.00;;;;;;;;5029820;28;8796;-73
2024/03/05 14:03:12;;;;;;;;;7.75;6.00;;;;;;;;5030658;28;10507;-73
2024/03/05 14:05:37;;;;;;;;;4.25;4.25;;;;;;;;5029644;28;10669;-73
2024/03/05 14:08:03;;;;;;;;;5.50;5.00;;;;;;;;5030850;28;10599;-73
2024/03/05 14:10:29;;;;;;;;;5.75;5.00;;;;;;;;5029303;28;8957;-73
2024/03/05 14:12:54;;;;;;;;;4.75;4.50;;;;;;;;5029574;28;8816;-74
2024/03/05 14:15:19;;;;;;;;;7.00;5.75;;;;;;;;5030681;28;10644;-73
2024/03/05 14:17:45;;;;;;;;;6.75;6.75;;;;;;;;5029075;28;8832;-73
2024/03/05 14:20:11;;;;;;;;;6.00;5.75;;;;;;;;5030657;28;8993;-73
2024/03/05 14:22:36;;;;;;;;;7.00;6.25;;;;;;;;5029209;28;8816;-73
2024/03/05 14:25:02;;;;;;;;;5.00;5.00;;;;;;;;5029304;28;8816;-73
2024/03/05 14:27:28;;;;;;;;;5.50;4.75;;;;;;;;5030623;28;8820;-73
2024/03/05 14:29:54;;;;;;;;;8.50;8.00;;;;;;;;5030510;28;8830;-73
2024/03/05 14:32:21;;;;;;;;;5.75;4.50;;;;;;;;5030421;28;8882;-78
2024/03/05 14:34:46;;;;;;;;;4.25;4.25;;;;;;;;5030131;28;10749;-73
2024/03/05 14:37:11;;;;;;;;;5.50;5.50;;;;;;;;5040786;28;10616;-73
2024/03/05 14:39:37;;;;;;;;;5.00;4.00;;;;;;;;5037494;28;8864;-73
2024/03/05 14:42:02;;;;;;;;;4.00;4.00;;;;;;;;5038460;28;8817;-74
2024/03/05 14:44:27;;;;;;;;;6.00;5.00;;;;;;;;5041168;28;8792;-73
2024/03/05 14:46:53;;;;;;;;;5.75;5.75;;;;;;;;5042575;28;8838;-73
2024/03/05 14:49:18;;;;;;;;;4.25;3.00;;;;;;;;5044431;28;8876;-73
2024/03/05 14:51:43;;;;;;;;;4.00;3.50;;;;;;;;5036929;28;8804;-82
2024/03/05 14:54:09;;;;;;;;;3.00;3.00;;;;;;;;5034257;28;8806;-81
2024/03/05 14:56:36;;;;;;;;;6.75;5.00;;;;;;;;5034248;28;8826;-80
2024/03/05 14:59:01;;;;;;;;;4.00;4.00;;;;;;;;5032920;28;8869;-75
2024/03/05 15:01:26;;;;;;;;;3.00;3.00;;;;;;;;5033881;28;10770;-78
2024/03/05 15:03:52;;;;;;;;;4.00;3.00;;;;;;;;5034053;28;9502;-86
2024/03/05 15:06:17;;;;;;;;;4.25;2.00;;;;;;;;5034086;28;8962;-85
2024/03/05 15:08:42;;;;;;;;;3.00;3.00;;;;;;;;5033867;28;8824;-78
2024/03/05 15:11:08;;;;;;;;;3.00;3.00;;;;;;;;5033964;28;8807;-80
2024/03/05 15:13:33;;;;;;;;;4.25;4.25;;;;;;;;5033930;28;8781;-80
2024/03/05 15:15:59;;;;;;;;;1.75;1.50;;;;;;;;5033874;28;8788;-78
2024/03/05 15:18:24;;;;;;;;;3.00;2.00;;;;;;;;5032266;28;8831;-79
2024/03/05 15:20:52;;;;;;;;;2.00;2.00;;;;;;;;5032750;28;8800;-88
2024/03/05 15:23:18;;;;;;;;;2.00;2.00;;;;;;;;5031339;28;8830;-72
2024/03/05 15:25:45;;;;;;;;;3.00;3.00;;;;;;;;5019611;28;10710;-78
2024/03/05 15:28:11;;;;;;;;;3.00;3.00;;;;;;;;5021385;28;8835;-78
2024/03/05 15:30:36;;;;;;;;;6.00;2.00;;;;;;;;5008856;28;10577;-78
2024/03/05 15:33:02;;;;;;;;;2.00;2.00;;;;;;;;5011623;28;9036;-78
2024/03/05 15:35:28;;;;;;;;;2.75;2.75;;;;;;;;5012125;28;8949;-78
2024/03/05 15:37:54;;;;;;;;;3.75;2.75;;;;;;;;5012716;28;8895;-78
2024/03/05 15:40:20;;;;;;;;;5.75;3.00;;;;;;;;5028914;28;10879;-79
2024/03/05 15:42:46;;;;;;;;;2.75;2.00;;;;;;;;5033006;28;8804;-79
2024/03/05 15:45:12;;;;;;;;;3.00;3.00;;;;;;;;5033332;28;10780;-78
2024/03/05 15:47:41;;;;;;;;;3.00;3.00;;;;;;;;5033308;28;10751;-78
2024/03/05 15:50:08;;;;;;;;;4.25;3.25;;;;;;;;5033312;28;8842;-79
2024/03/05 15:52:33;;;;;;;;;4.00;2.00;;;;;;;;5033160;28;10726;-78
2024/03/05 15:55:00;;;;;;;;;2.50;2.50;;;;;;;;5033144;28;10689;-77
2024/03/05 15:57:41;;;;;;;;;6.00;3.00;;;;;;;;5032610;28;8776;-79
2024/03/05 16:00:07;;;;;;;;;3.25;3.25;;;;;;;;5033128;28;10918;-79
2024/03/05 16:02:32;;;;;;;;;3.50;3.25;;;;;;;;5033112;28;10879;-78
2024/03/05 16:04:58;;;;;;;;;4.75;3.00;;;;;;;;5032964;28;8974;-78
2024/03/05 16:07:23;;;;;;;;;2.25;2.25;;;;;;;;5033056;28;8849;-79
2024/03/05 16:09:48;;;;;;;;;3.25;2.00;;;;;;;;5033042;28;8862;-79
2024/03/05 16:12:14;;;;;;;;;3.00;3.00;;;;;;;;5033006;28;8785;-79
2024/03/05 16:14:40;;;;;;;;;5.00;3.00;;;;;;;;5032923;28;8788;-79
2024/03/05 16:17:06;;;;;;;;;6.50;4.25;;;;;;;;5033361;28;8777;-79
2024/03/05 16:19:31;;;;;;;;;4.00;3.00;;;;;;;;5032602;28;11243;-79
2024/03/05 16:21:57;;;;;;;;;6.50;4.00;;;;;;;;5032697;28;10931;-79
2024/03/05 16:24:22;;;;;;;;;4.00;4.00;;;;;;;;5032728;28;8923;-79
2024/03/05 16:26:48;;;;;;;;;5.25;4.25;;;;;;;;5032714;28;8835;-79
2024/03/05 16:29:14;;;;;;;;;4.00;4.00;;;;;;;;5032811;28;8796;-79
2024/03/05 16:31:39;;;;;;;;;6.00;3.50;;;;;;;;5032520;28;10995;-79
2024/03/05 16:34:05;;;;;;;;;3.00;3.00;;;;;;;;5031184;28;8899;-79
2024/03/05 16:36:30;;;;;;;;;4.00;4.00;;;;;;;;5032593;28;8792;-79
2024/03/05 16:38:55;;;;;;;;;5.50;5.00;;;;;;;;5032783;28;8828;-79
2024/03/05 16:41:20;;;;;;;;;4.50;4.50;;;;;;;;5032513;28;8810;-79
2024/03/05 16:43:46;;;;;;;;;3.00;2.25;;;;;;;;5032520;28;8807;-79
2024/03/05 16:46:11;;;;;;;;;5.75;5.00;;;;;;;;5031021;28;9542;-79
2024/03/05 16:48:37;;;;;;;;;9.50;5.00;;;;;;;;5032253;28;8796;-79
2024/03/05 16:51:04;;;;;;;;;6.75;6.00;;;;;;;;5032564;28;8788;-79
2024/03/05 16:53:29;;;;;;;;;5.00;4.25;;;;;;;;5031026;28;12179;-78
2024/03/05 16:55:55;;;;;;;;;5.25;5.25;;;;;;;;5032237;28;11166;-76
2024/03/05 16:58:21;;;;;;;;;5.25;5.00;;;;;;;;5031769;28;8831;-76
2024/03/05 17:00:51;;;;;;;;;5.00;3.00;;;;;;;;5028721;28;11063;-78
2024/03/05 17:03:18;;;;;;;;;6.00;3.00;;;;;;;;5027867;28;8826;-75
2024/03/05 17:05:50;;;;;;;;;3.00;3.00;;;;;;;;5009833;28;11128;-79
2024/03/05 17:08:19;;;;;;;;;4.00;2.50;;;;;;;;5009392;28;11142;-73
2024/03/05 17:10:47;;;;;;;;;4.75;3.50;;;;;;;;5030126;28;11049;-76
